Time;durP1;ratioP1;P1;durP2;ratioP2;P2;SDS_P1;SDS_P2;PMS_P1;PMS_P2;Temp;Humidity;BMP_temperature;BMP_pressure;BME280_temperature;BME280_humidity;BME280_pressure;Samples;Min_cycle;Max_cycle;Signal;HPM_P1;HPM_P2
2023/05/02 00:02:00;;;;;;;5.40;5.00;;;;;;;11.16;100.00;100210.31;5075658;28;20231;-67
2023/05/02 00:04:25;;;;;;;6.27;5.67;;;;;;;11.15;100.00;100206.09;5068828;28;20280;-69
2023/05/02 00:06:52;;;;;;;6.73;6.13;;;;;;;11.07;100.00;100197.97;5071151;28;20188;-67
2023/05/02 00:09:17;;;;;;;7.57;5.90;;;;;;;11.04;100.00;100204.09;5058797;28;20221;-67
2023/05/02 00:11:43;;;;;;;6.43;5.83;;;;;;;10.95;100.00;100199.44;5075593;28;20226;-68
2023/05/02 00:14:08;;;;;;;7.03;6.27;;;;;;;10.93;100.00;100203.88;5075245;28;20185;-68
2023/05/02 00:16:33;;;;;;;6.30;5.70;;;;;;;10.93;100.00;100203.88;5072290;28;20249;-68
2023/05/02 00:18:58;;;;;;;8.30;6.67;;;;;;;10.84;100.00;100196.63;5072768;28;20647;-68
2023/05/02 00:21:24;;;;;;;6.80;6.20;;;;;;;10.84;100.00;100202.63;5073186;28;20268;-67
2023/05/02 00:23:52;;;;;;;7.00;6.50;;;;;;;10.78;100.00;100201.19;5089599;28;20180;-68
2023/05/02 00:26:17;;;;;;;8.13;7.43;;;;;;;10.78;100.00;100200.38;5079825;28;20185;-68
2023/05/02 00:28:43;;;;;;;8.60;7.83;;;;;;;10.70;100.00;100205.09;5072573;28;20185;-67
2023/05/02 00:31:09;;;;;;;8.60;7.90;;;;;;;10.71;100.00;100204.19;5064252;28;20317;-67
2023/05/02 00:33:34;;;;;;;9.53;8.63;;;;;;;10.70;100.00;100210.25;5079056;28;20284;-67
2023/05/02 00:35:59;;;;;;;9.37;8.47;;;;;;;10.60;100.00;100204.75;5072042;28;20644;-67
2023/05/02 00:38:24;;;;;;;10.03;9.13;;;;;;;10.54;100.00;100208.47;5072406;28;20179;-67
2023/05/02 00:40:51;;;;;;;10.73;9.53;;;;;;;10.51;100.00;100213.78;5068652;28;20223;-67
2023/05/02 00:43:17;;;;;;;10.40;9.50;;;;;;;10.43;100.00;100210.78;5085392;28;20301;-67
2023/05/02 00:45:45;;;;;;;10.13;9.33;;;;;;;10.39;100.00;100207.53;5091669;28;20631;-67
2023/05/02 00:48:11;;;;;;;11.17;10.07;;;;;;;10.29;100.00;100214.84;5089865;28;20195;-67
2023/05/02 00:50:37;;;;;;;10.70;9.77;;;;;;;10.35;100.00;100208.56;5083129;28;20235;-68
2023/05/02 00:53:04;;;;;;;11.07;10.07;;;;;;;10.31;100.00;100219.94;5101475;28;20606;-68
2023/05/02 00:55:31;;;;;;;11.53;10.63;;;;;;;10.25;100.00;100221.06;5089877;28;20223;-68
2023/05/02 00:57:57;;;;;;;12.33;11.07;;;;;;;10.09;100.00;100220.19;5083017;28;20643;-68
2023/05/02 01:00:35;;;;;;;13.17;11.53;;;;;;;9.98;100.00;100216.41;5063456;28;20284;-68
2023/05/02 01:03:12;;;;;;;12.43;11.27;;;;;;;10.03;100.00;100223.91;5067152;28;20185;-68
2023/05/02 01:05:52;;;;;;;12.40;11.30;;;;;;;9.97;100.00;100219.06;5089018;28;20217;-66
2023/05/02 01:08:39;;;;;;;13.53;12.33;;;;;;;9.95;100.00;100220.91;5071652;28;20209;-67
2023/05/02 01:11:14;;;;;;;13.40;12.17;;;;;;;10.08;100.00;100219.34;5079843;28;20228;-66
2023/05/02 01:13:41;;;;;;;13.90;12.67;;;;;;;10.13;100.00;100221.69;5077469;28;20205;-66
2023/05/02 01:16:10;;;;;;;15.40;13.87;;;;;;;10.06;100.00;100222.91;5089721;28;20658;-67
2023/05/02 01:18:39;;;;;;;14.17;12.73;;;;;;;10.04;100.00;100228.13;5089459;28;20544;-67
2023/05/02 01:21:10;;;;;;;14.53;13.23;;;;;;;10.02;100.00;100229.94;5082258;28;20273;-67
2023/05/02 01:24:04;;;;;;;14.33;13.03;;;;;;;10.01;100.00;100233.44;5074412;28;20255;-66
2023/05/02 01:26:49;;;;;;;14.33;12.93;;;;;;;10.01;100.00;100239.41;5090222;28;20180;-67
2023/05/02 01:29:17;;;;;;;15.00;13.60;;;;;;;10.04;100.00;100233.28;5089295;28;20188;-66
2023/05/02 01:31:46;;;;;;;16.20;14.80;;;;;;;10.00;100.00;100236.91;5094094;28;20308;-67
2023/05/02 01:34:12;;;;;;;17.20;15.53;;;;;;;9.95;100.00;100241.47;5074031;28;20562;-67
2023/05/02 01:36:43;;;;;;;18.20;16.50;;;;;;;9.88;100.00;100233.22;5066255;28;20193;-68
2023/05/02 01:39:12;;;;;;;18.33;16.47;;;;;;;9.87;100.00;100239.25;5067252;28;20200;-67
2023/05/02 01:41:38;;;;;;;19.77;17.77;;;;;;;10.00;100.00;100240.31;5063142;28;20232;-68
2023/05/02 01:44:06;;;;;;;19.40;17.50;;;;;;;10.05;100.00;100250.38;5069826;28;20255;-67
2023/05/02 01:46:35;;;;;;;21.30;19.40;;;;;;;10.23;100.00;100238.31;5069924;28;20187;-67
2023/05/02 01:49:02;;;;;;;22.20;20.03;;;;;;;10.30;100.00;100236.28;5072442;28;20176;-68
2023/05/02 01:51:31;;;;;;;21.03;19.07;;;;;;;10.44;100.00;100240.72;5083043;28;20230;-67
2023/05/02 01:54:00;;;;;;;21.37;19.27;;;;;;;10.47;100.00;100238.00;5061018;28;20647;-69
2023/05/02 01:56:28;;;;;;;23.40;21.20;;;;;;;10.61;100.00;100245.00;5079474;28;20294;-67
2023/05/02 01:58:54;;;;;;;23.47;21.10;;;;;;;10.65;100.00;100247.34;5089482;28;20187;-68
2023/05/02 02:01:23;;;;;;;22.77;20.67;;;;;;;10.72;100.00;100255.56;5079655;28;20230;-66
2023/05/02 02:03:49;;;;;;;22.33;20.33;;;;;;;10.64;100.00;100257.69;5052874;28;20173;-67
2023/05/02 02:06:14;;;;;;;23.93;21.73;;;;;;;10.65;100.00;100254.22;5061356;28;20263;-66
2023/05/02 02:08:40;;;;;;;24.47;22.07;;;;;;;10.75;100.00;100259.72;5070910;28;20220;-66
2023/05/02 02:11:09;;;;;;;24.87;22.57;;;;;;;10.60;100.00;100262.16;5071618;28;20231;-66
2023/05/02 02:13:42;;;;;;;25.43;23.03;;;;;;;10.60;100.00;100266.50;5073984;28;20528;-66
2023/05/02 02:16:11;;;;;;;24.80;22.33;;;;;;;10.67;100.00;100265.25;5074573;28;20192;-67
2023/05/02 02:18:38;;;;;;;25.80;23.30;;;;;;;10.62;100.00;100278.34;5074364;28;20185;-68
2023/05/02 02:21:06;;;;;;;25.23;22.93;;;;;;;10.60;100.00;100280.16;5067174;28;20261;-67
2023/05/02 02:23:33;;;;;;;26.33;24.03;;;;;;;10.45;100.00;100278.41;5073541;28;20181;-67
2023/05/02 02:26:01;;;;;;;29.10;26.30;;;;;;;10.35;100.00;100285.72;5074276;28;20177;-67
2023/05/02 02:28:26;;;;;;;31.10;27.73;;;;;;;10.29;100.00;100284.28;5071727;28;20197;-67
2023/05/02 02:30:52;;;;;;;29.47;26.60;;;;;;;10.23;100.00;100288.91;5065940;28;20231;-68
2023/05/02 02:33:18;;;;;;;35.73;29.00;;;;;;;10.15;100.00;100286.72;5084830;28;20263;-68
2023/05/02 02:35:52;;;;;;;32.63;29.60;;;;;;;10.07;100.00;100291.41;5082203;28;20201;-68
2023/05/02 02:38:30;;;;;;;35.47;32.00;;;;;;;10.03;100.00;100301.00;5089871;28;20176;-67
2023/05/02 02:41:03;;;;;;;33.63;30.43;;;;;;;10.01;100.00;100293.38;5076079;28;20344;-67
2023/05/02 02:43:50;;;;;;;35.10;31.83;;;;;;;9.86;100.00;100296.72;5082748;28;20664;-67
2023/05/02 02:46:23;;;;;;;35.97;32.23;;;;;;;9.90;100.00;100302.50;5072556;28;20180;-67
2023/05/02 02:49:38;;;;;;;37.93;34.00;;;;;;;9.87;100.00;100292.38;5093415;28;20204;-68
2023/05/02 02:52:17;;;;;;;38.03;34.13;;;;;;;9.83;100.00;100301.97;5023289;28;20228;-67
2023/05/02 02:54:48;;;;;;;38.80;34.67;;;;;;;9.82;100.00;100306.28;5030478;28;20591;-67
2023/05/02 02:57:27;;;;;;;39.70;35.73;;;;;;;9.62;100.00;100311.53;5034670;28;20676;-67
2023/05/02 03:00:02;;;;;;;39.40;35.40;;;;;;;9.60;100.00;100315.91;5034807;28;20268;-67
2023/05/02 03:02:31;;;;;;;42.13;37.87;;;;;;;9.56;100.00;100327.22;4997956;28;20225;-67
2023/05/02 03:04:57;;;;;;;44.07;39.37;;;;;;;9.45;100.00;100323.44;5050708;28;20192;-70
2023/05/02 03:07:23;;;;;;;42.30;38.07;;;;;;;9.48;100.00;100327.59;5051619;28;20209;-67
2023/05/02 03:09:48;;;;;;;42.47;38.07;;;;;;;9.51;100.00;100330.84;5050669;28;20264;-67
2023/05/02 03:12:13;;;;;;;43.33;38.80;;;;;;;9.42;100.00;100328.69;5039618;28;20586;-67
2023/05/02 03:14:39;;;;;;;43.60;39.13;;;;;;;9.41;100.00;100339.88;5050164;28;20603;-67
2023/05/02 03:17:07;;;;;;;46.07;41.47;;;;;;;9.43;100.00;100345.78;5040823;28;20228;-66
2023/05/02 03:19:32;;;;;;;43.50;38.90;;;;;;;9.37;100.00;100340.91;5043689;28;20574;-68
2023/05/02 03:21:58;;;;;;;46.17;41.20;;;;;;;9.26;100.00;100343.97;5047097;28;20289;-67
2023/05/02 03:24:23;;;;;;;45.50;40.77;;;;;;;9.27;100.00;100352.53;5092529;28;20183;-67
2023/05/02 03:26:48;;;;;;;45.50;40.70;;;;;;;9.31;100.00;100354.84;5092967;28;20187;-68
2023/05/02 03:29:14;;;;;;;45.50;40.80;;;;;;;9.22;100.00;100360.41;5092718;28;20207;-67
2023/05/02 03:31:40;;;;;;;45.07;40.33;;;;;;;9.14;100.00;100367.63;5061773;28;20224;-67
2023/05/02 03:34:05;;;;;;;45.43;40.67;;;;;;;9.13;100.00;100369.38;5092884;28;20633;-68
2023/05/02 03:36:31;;;;;;;47.53;41.33;;;;;;;9.08;100.00;100376.44;5092952;28;20199;-67
2023/05/02 03:38:56;;;;;;;47.50;42.70;;;;;;;9.15;100.00;100372.69;5093032;28;20191;-68
2023/05/02 03:41:23;;;;;;;47.97;41.53;;;;;;;9.18;100.00;100374.31;5093873;28;20227;-69
2023/05/02 03:43:49;;;;;;;48.90;42.60;;;;;;;9.25;100.00;100377.41;5091072;28;20173;-68
2023/05/02 03:46:14;;;;;;;49.03;43.63;;;;;;;9.24;100.00;100370.63;5090465;28;20242;-68
2023/05/02 03:48:39;;;;;;;47.93;42.13;;;;;;;9.40;100.00;100368.19;5073686;28;20704;-68
2023/05/02 03:51:08;;;;;;;46.77;41.63;;;;;;;9.43;100.00;100366.31;5071321;28;20243;-68
2023/05/02 03:53:34;;;;;;;52.00;43.80;;;;;;;9.42;100.00;100369.78;5068965;28;20181;-68
2023/05/02 03:55:59;;;;;;;46.77;41.80;;;;;;;9.48;100.00;100368.69;5083025;28;20716;-68
2023/05/02 03:58:25;;;;;;;53.13;45.53;;;;;;;9.44;100.00;100373.13;5092938;28;20176;-68
2023/05/02 04:00:52;;;;;;;47.47;42.50;;;;;;;9.47;100.00;100377.28;5088730;28;20293;-68
2023/05/02 04:03:17;;;;;;;49.77;43.23;;;;;;;9.51;100.00;100378.81;5091695;28;20172;-68
2023/05/02 04:05:43;;;;;;;51.80;46.20;;;;;;;9.54;100.00;100383.81;5092447;28;20270;-68
2023/05/02 04:08:09;;;;;;;47.77;42.40;;;;;;;9.56;100.00;100382.00;5080907;28;20195;-68
2023/05/02 04:10:34;;;;;;;48.93;42.50;;;;;;;9.45;100.00;100386.78;5081585;28;20668;-68
2023/05/02 04:13:01;;;;;;;46.63;41.67;;;;;;;9.66;100.00;100390.94;5083959;28;20241;-68
2023/05/02 04:15:27;;;;;;;47.00;42.07;;;;;;;9.63;100.00;100395.41;5072302;28;20197;-69
2023/05/02 04:17:52;;;;;;;44.53;39.67;;;;;;;9.67;100.00;100399.47;5072760;28;20651;-69
2023/05/02 04:20:18;;;;;;;42.70;38.27;;;;;;;9.71;100.00;100410.44;5063796;28;20184;-68
2023/05/02 04:22:45;;;;;;;45.87;40.87;;;;;;;9.79;100.00;100408.38;5071252;28;20195;-68
2023/05/02 04:25:10;;;;;;;43.10;38.70;;;;;;;9.82;100.00;100414.19;5071487;28;20204;-68
2023/05/02 04:27:35;;;;;;;43.90;39.23;;;;;;;9.84;100.00;100416.69;5071533;28;20651;-67
2023/05/02 04:30:00;;;;;;;47.80;41.70;;;;;;;9.88;100.00;100431.06;5072807;28;20179;-67
2023/05/02 04:32:26;;;;;;;51.73;43.93;;;;;;;9.90;100.00;100428.41;5077838;28;20762;-68
2023/05/02 04:34:51;;;;;;;49.73;43.63;;;;;;;9.94;100.00;100429.94;5075702;28;20256;-67
2023/05/02 04:37:17;;;;;;;47.73;42.67;;;;;;;10.08;100.00;100432.69;5080354;28;20274;-70
2023/05/02 04:39:42;;;;;;;46.90;41.90;;;;;;;10.22;100.00;100438.91;5088220;28;20173;-69
2023/05/02 04:42:08;;;;;;;42.93;38.33;;;;;;;10.32;100.00;100440.97;5077502;28;20224;-68
2023/05/02 04:44:33;;;;;;;45.80;40.53;;;;;;;10.43;100.00;100447.38;5071977;28;20169;-69
2023/05/02 04:46:58;;;;;;;47.17;42.27;;;;;;;10.36;100.00;100443.41;5072746;28;20191;-67
2023/05/02 04:49:23;;;;;;;52.00;46.13;;;;;;;10.46;100.00;100449.81;5072702;28;20514;-68
2023/05/02 04:51:50;;;;;;;55.40;48.33;;;;;;;10.46;100.00;100449.81;5075922;28;20228;-68
2023/05/02 04:54:16;;;;;;;55.47;49.37;;;;;;;10.52;100.00;100446.94;5070537;28;20522;-67
2023/05/02 04:56:41;;;;;;;54.20;48.43;;;;;;;10.59;100.00;100452.59;5083471;28;20192;-67
2023/05/02 04:59:06;;;;;;;55.13;48.77;;;;;;;10.69;100.00;100458.13;5090356;28;20183;-67
2023/05/02 05:01:32;;;;;;;55.47;48.53;;;;;;;10.76;100.00;100456.94;5081240;28;20586;-67
2023/05/02 05:03:57;;;;;;;58.90;48.90;;;;;;;10.77;100.00;100462.00;5071047;28;20215;-68
2023/05/02 05:06:23;;;;;;;52.97;47.17;;;;;;;10.80;100.00;100463.56;5088295;28;20251;-67
2023/05/02 05:08:48;;;;;;;53.10;45.87;;;;;;;10.92;100.00;100470.69;5074804;28;20239;-67
2023/05/02 05:11:14;;;;;;;54.50;48.57;;;;;;;10.96;100.00;100477.38;5070218;28;20314;-67
2023/05/02 05:13:40;;;;;;;54.30;47.73;;;;;;;11.02;100.00;100477.97;5077690;28;20584;-67
2023/05/02 05:16:06;;;;;;;51.53;45.93;;;;;;;11.22;100.00;100485.47;5077974;28;20279;-68
2023/05/02 05:18:39;;;;;;;52.73;47.00;;;;;;;11.51;100.00;100478.03;5084549;28;20295;-68
2023/05/02 05:21:04;;;;;;;48.90;42.53;;;;;;;11.88;100.00;100481.22;5069761;28;20223;-68
2023/05/02 05:23:30;;;;;;;50.30;44.80;;;;;;;12.11;100.00;100474.81;5078734;28;20195;-66
2023/05/02 05:25:55;;;;;;;52.77;46.80;;;;;;;12.11;100.00;100474.00;5070813;28;20185;-68
2023/05/02 05:28:20;;;;;;;50.60;44.47;;;;;;;12.14;100.00;100478.16;5071583;28;20582;-67
2023/05/02 05:30:45;;;;;;;47.57;42.40;;;;;;;12.15;100.00;100478.06;5065369;28;20253;-70
2023/05/02 05:33:11;;;;;;;50.03;43.03;;;;;;;11.95;100.00;100484.28;5071819;28;20221;-68
2023/05/02 05:35:36;;;;;;;48.23;42.97;;;;;;;11.90;100.00;100492.25;5083079;28;20199;-69
2023/05/02 05:38:01;;;;;;;49.13;43.17;;;;;;;12.03;100.00;100492.47;5079426;28;20225;-68
2023/05/02 05:40:27;;;;;;;45.33;40.47;;;;;;;12.04;100.00;100496.69;5083482;28;20227;-68
2023/05/02 05:42:52;;;;;;;48.60;41.80;;;;;;;12.15;100.00;100497.88;5101771;28;20176;-70
2023/05/02 05:45:18;;;;;;;47.60;42.20;;;;;;;12.29;100.00;100497.94;5090717;28;20274;-68
2023/05/02 05:47:43;;;;;;;42.50;37.93;;;;;;;12.13;100.00;100510.84;5092187;28;20256;-68
2023/05/02 05:50:09;;;;;;;48.47;42.63;;;;;;;12.01;100.00;100516.69;5083976;28;20259;-67
2023/05/02 05:52:36;;;;;;;44.70;40.00;;;;;;;11.95;100.00;100517.78;5105272;28;20255;-68
2023/05/02 05:55:03;;;;;;;45.07;39.80;;;;;;;12.01;100.00;100519.25;5090892;28;20249;-67
2023/05/02 05:57:28;;;;;;;49.33;40.90;;;;;;;12.01;100.00;100524.41;5086989;28;20191;-67
2023/05/02 05:59:53;;;;;;;45.07;39.63;;;;;;;11.87;100.00;100528.53;5080516;28;20640;-71
2023/05/02 06:02:18;;;;;;;44.13;39.33;;;;;;;12.04;100.00;100532.78;5080447;28;20220;-70
2023/05/02 06:04:45;;;;;;;45.83;40.67;;;;;;;12.20;100.00;100527.63;5079928;28;20838;-70
2023/05/02 06:07:11;;;;;;;41.37;36.87;;;;;;;12.29;100.00;100526.28;5077001;28;20291;-70
2023/05/02 06:09:36;;;;;;;40.90;36.50;;;;;;;12.57;100.00;100532.53;5079972;28;20219;-69
2023/05/02 06:12:01;;;;;;;43.03;38.43;;;;;;;12.93;100.00;100533.94;5082767;28;20215;-74
2023/05/02 06:14:27;;;;;;;41.97;37.57;;;;;;;13.04;100.00;100539.31;5071812;28;20189;-74
2023/05/02 06:16:52;;;;;;;43.40;38.33;;;;;;;13.19;100.00;100542.75;5072804;28;20209;-70
2023/05/02 06:19:17;;;;;;;41.90;37.50;;;;;;;13.15;100.00;100541.28;5075885;28;20178;-69
2023/05/02 06:21:42;;;;;;;41.73;36.77;;;;;;;13.47;100.00;100546.34;5080981;28;20285;-69
2023/05/02 06:24:08;;;;;;;41.87;37.40;;;;;;;13.62;100.00;100551.50;5084638;28;20181;-72
2023/05/02 06:26:34;;;;;;;42.20;37.70;;;;;;;13.75;100.00;100554.19;5080986;28;20612;-72
2023/05/02 06:29:00;;;;;;;40.13;36.03;;;;;;;13.84;100.00;100548.44;5081528;28;20242;-71
2023/05/02 06:31:25;;;;;;;42.30;37.77;;;;;;;13.92;100.00;100553.97;5081472;28;20670;-67
2023/05/02 06:33:51;;;;;;;43.07;38.47;;;;;;;13.85;100.00;100557.84;5076444;28;20190;-70
2023/05/02 06:36:16;;;;;;;42.17;37.77;;;;;;;13.92;100.00;100561.72;5080125;28;20651;-67
2023/05/02 06:38:41;;;;;;;38.63;34.20;;;;;;;13.96;100.00;100564.97;5080100;28;20231;-71
2023/05/02 06:41:13;;;;;;;40.10;36.03;;;;;;;13.95;100.00;100568.47;5077722;28;20647;-72
2023/05/02 06:43:38;;;;;;;41.30;37.07;;;;;;;14.00;100.00;100571.59;5085497;28;20230;-72
2023/05/02 06:46:04;;;;;;;39.83;35.60;;;;;;;14.23;100.00;100577.09;5080537;28;20611;-72
2023/05/02 06:48:29;;;;;;;43.27;38.80;;;;;;;14.32;100.00;100579.94;5080278;28;20176;-71
2023/05/02 06:50:54;;;;;;;38.97;35.00;;;;;;;14.67;100.00;100583.84;5074719;28;20706;-71
2023/05/02 06:53:20;;;;;;;34.63;30.87;;;;;;;14.79;100.00;100583.06;5091765;28;20180;-71
2023/05/02 06:55:47;;;;;;;33.60;30.13;;;;;;;14.85;100.00;100582.66;5093252;28;20195;-71
2023/05/02 06:58:12;;;;;;;32.33;29.17;;;;;;;14.98;100.00;100587.06;5091391;28;20238;-72
2023/05/02 07:00:37;;;;;;;30.40;27.17;;;;;;;14.74;100.00;100587.72;5058726;28;20320;-73
2023/05/02 07:03:03;;;;;;;26.30;23.57;;;;;;;14.88;100.00;100588.59;5081918;28;20454;-70
2023/05/02 07:05:28;;;;;;;25.57;22.97;;;;;;;15.13;100.00;100593.84;5080473;28;20192;-72
2023/05/02 07:07:53;;;;;;;22.60;20.30;;;;;;;15.62;100.00;100594.06;5076648;28;20204;-72
2023/05/02 07:10:19;;;;;;;19.93;16.80;;;;;;;16.64;95.19;100597.38;5069660;28;20299;-71
2023/05/02 07:12:44;;;;;;;18.13;16.20;;;;;;;16.33;93.46;100596.97;5066955;28;20197;-72
2023/05/02 07:15:10;;;;;;;18.30;16.30;;;;;;;16.08;95.49;100611.69;5060523;28;20581;-72
2023/05/02 07:17:35;;;;;;;19.03;17.00;;;;;;;15.06;100.00;100615.88;5067836;28;20322;-72
2023/05/02 07:20:00;;;;;;;18.83;16.60;;;;;;;14.55;100.00;100610.50;5075834;28;20200;-70
2023/05/02 07:22:25;;;;;;;20.87;18.57;;;;;;;14.31;100.00;100611.09;5097099;28;20694;-71
2023/05/02 07:24:58;;;;;;;22.87;19.37;;;;;;;14.29;100.00;100616.38;5081624;28;20232;-70
2023/05/02 07:27:23;;;;;;;22.83;19.37;;;;;;;14.28;100.00;100624.25;5083244;28;20274;-70
2023/05/02 07:29:49;;;;;;;23.07;20.40;;;;;;;14.27;100.00;100627.75;5079720;28;20301;-70
2023/05/02 07:32:14;;;;;;;23.87;21.33;;;;;;;14.20;100.00;100627.28;5074876;28;20223;-70
2023/05/02 07:34:39;;;;;;;22.83;18.77;;;;;;;14.09;100.00;100625.38;5087775;28;20511;-70
2023/05/02 07:37:04;;;;;;;23.47;20.17;;;;;;;14.02;100.00;100634.44;5085933;28;20248;-70
2023/05/02 07:39:31;;;;;;;21.97;19.47;;;;;;;13.98;100.00;100636.38;5083517;28;20184;-57
2023/05/02 07:41:57;;;;;;;19.37;17.37;;;;;;;14.02;100.00;100634.44;5080486;28;20761;-71
2023/05/02 07:44:23;;;;;;;31.97;20.27;;;;;;;13.81;100.00;100641.72;5084546;28;20314;-72
2023/05/02 07:46:48;;;;;;;22.93;17.53;;;;;;;13.66;100.00;100644.28;5082241;28;20545;-71
2023/05/02 07:49:13;;;;;;;25.60;20.20;;;;;;;13.29;100.00;100643.81;5083205;28;20229;-70
2023/05/02 07:51:39;;;;;;;23.93;19.70;;;;;;;13.23;100.00;100649.31;5075244;28;20211;-70
2023/05/02 07:54:15;;;;;;;20.33;17.93;;;;;;;13.27;100.00;100655.97;5083662;28;20270;-71
2023/05/02 07:56:41;;;;;;;21.77;18.57;;;;;;;13.35;100.00;100652.97;5083211;28;20198;-71
2023/05/02 07:59:06;;;;;;;20.40;18.30;;;;;;;13.42;100.00;100656.03;5085898;28;20172;-70
2023/05/02 08:01:32;;;;;;;19.20;17.10;;;;;;;13.20;100.00;100658.06;5094100;28;20233;-71
2023/05/02 08:03:57;;;;;;;19.03;17.00;;;;;;;12.95;100.00;100662.94;5094339;28;20193;-71
2023/05/02 08:06:22;;;;;;;21.07;17.90;;;;;;;12.75;100.00;100670.03;5083813;28;20183;-71
2023/05/02 08:08:48;;;;;;;20.80;17.10;;;;;;;12.43;100.00;100677.78;5089885;28;20686;-71
2023/05/02 08:11:13;;;;;;;21.77;17.33;;;;;;;12.39;100.00;100671.09;5090615;28;20227;-71
2023/05/02 08:13:38;;;;;;;20.13;16.93;;;;;;;12.41;100.00;100677.03;5096215;28;20187;-73
2023/05/02 08:16:03;;;;;;;22.67;18.33;;;;;;;12.46;100.00;100679.38;5080699;28;20195;-70
2023/05/02 08:18:29;;;;;;;23.50;18.53;;;;;;;12.09;100.00;100685.53;5079345;28;20291;-71
2023/05/02 08:20:57;;;;;;;22.00;17.77;;;;;;;12.05;100.00;100685.78;5072440;28;20650;-70
2023/05/02 08:23:22;;;;;;;21.63;17.67;;;;;;;12.10;100.00;100684.59;5083749;28;20619;-71
2023/05/02 08:25:47;;;;;;;23.37;18.23;;;;;;;12.35;100.00;100688.47;5075244;28;20191;-71
2023/05/02 08:28:13;;;;;;;18.40;15.43;;;;;;;12.82;100.00;100686.84;5078708;28;20279;-71
2023/05/02 08:30:38;;;;;;;19.00;14.43;;;;;;;14.12;100.00;100683.84;5069851;28;20247;-71
2023/05/02 08:33:03;;;;;;;15.73;11.80;;;;;;;16.68;100.00;100681.09;5086118;28;20184;-70
2023/05/02 08:35:29;;;;;;;13.67;11.17;;;;;;;18.54;82.78;100681.19;5072021;28;20608;-70
2023/05/02 08:37:55;;;;;;;10.87;9.37;;;;;;;19.94;67.21;100689.03;5089818;28;20194;-70
2023/05/02 08:40:21;;;;;;;11.63;10.10;;;;;;;19.25;71.29;100688.59;5062951;28;20280;-68
2023/05/02 08:42:47;;;;;;;11.83;10.37;;;;;;;19.54;64.20;100695.78;5070737;28;20230;-69
2023/05/02 08:45:14;;;;;;;12.90;10.47;;;;;;;18.00;72.94;100709.63;5076365;28;20196;-70
2023/05/02 08:47:40;;;;;;;12.57;10.37;;;;;;;16.90;88.07;100706.38;5079083;28;20177;-71
2023/05/02 08:50:10;;;;;;;11.77;10.40;;;;;;;16.67;90.03;100703.66;5080448;28;20605;-67
2023/05/02 08:52:36;;;;;;;12.30;10.10;;;;;;;16.32;92.72;100706.94;5103154;28;20177;-69
2023/05/02 08:55:03;;;;;;;13.67;10.80;;;;;;;16.08;96.71;100714.66;5069840;28;20239;-70
2023/05/02 08:57:32;;;;;;;17.03;12.40;;;;;;;15.69;98.48;100712.03;5086662;28;20208;-69
2023/05/02 08:59:58;;;;;;;14.87;13.03;;;;;;;14.96;100.00;100723.63;5087811;28;20275;-70
2023/05/02 09:03:00;;;;;;;15.77;13.37;;;;;;;14.86;100.00;100736.31;5060228;28;20307;-69
2023/05/02 09:05:26;;;;;;;13.67;11.50;;;;;;;15.02;100.00;100736.19;5079484;28;20188;-69
2023/05/02 09:07:51;;;;;;;15.03;13.03;;;;;;;14.89;100.00;100741.31;5081851;28;20210;-71
2023/05/02 09:10:17;;;;;;;15.00;12.97;;;;;;;14.99;100.00;100739.78;5076144;28;20223;-71
2023/05/02 09:12:42;;;;;;;16.20;12.87;;;;;;;14.97;100.00;100738.22;5075632;28;20512;-71
2023/05/02 09:15:09;;;;;;;15.23;13.00;;;;;;;15.34;100.00;100741.06;5084124;28;20184;-71
2023/05/02 09:17:39;;;;;;;11.33;10.13;;;;;;;15.77;94.86;100740.84;5070456;28;20213;-72
2023/05/02 09:20:06;;;;;;;13.27;11.47;;;;;;;15.74;96.72;100743.66;5054681;28;20268;-69
2023/05/02 09:22:32;;;;;;;13.07;11.23;;;;;;;15.42;97.60;100748.38;5077698;28;20184;-70
2023/05/02 09:24:57;;;;;;;13.00;10.77;;;;;;;15.41;98.56;100749.28;5075598;28;20233;-70
2023/05/02 09:27:22;;;;;;;13.23;10.53;;;;;;;15.38;95.40;100746.88;5074671;28;20547;-70
2023/05/02 09:29:47;;;;;;;11.97;10.53;;;;;;;14.95;98.04;100758.22;5077839;28;20216;-71
2023/05/02 09:32:13;;;;;;;11.33;9.43;;;;;;;15.19;99.76;100752.44;5061197;28;20319;-71
2023/05/02 09:34:38;;;;;;;11.83;10.50;;;;;;;15.26;97.01;100753.69;5084850;28;20239;-71
2023/05/02 09:37:04;;;;;;;11.20;10.10;;;;;;;15.05;97.76;100754.13;5086381;28;20207;-71
2023/05/02 09:39:30;;;;;;;11.03;9.73;;;;;;;14.83;99.93;100757.22;5086304;28;20639;-71
2023/05/02 09:41:56;;;;;;;11.53;9.90;;;;;;;15.81;96.19;100759.66;5083492;28;20211;-71
2023/05/02 09:44:24;;;;;;;13.27;10.80;;;;;;;16.50;91.21;100764.56;5076613;28;20270;-71
2023/05/02 09:46:51;;;;;;;11.73;10.50;;;;;;;17.15;83.69;100764.44;5073271;28;20230;-71
2023/05/02 09:49:17;;;;;;;11.20;10.00;;;;;;;17.56;83.49;100756.25;5077561;28;20635;-71
2023/05/02 09:51:43;;;;;;;12.30;11.00;;;;;;;17.52;79.76;100759.16;5062741;28;20725;-69
2023/05/02 09:54:09;;;;;;;11.60;9.80;;;;;;;18.47;75.36;100763.38;5073600;28;20187;-71
2023/05/02 09:56:55;;;;;;;11.90;10.67;;;;;;;19.40;60.71;100764.75;5083084;28;20192;-71
2023/05/02 09:59:21;;;;;;;12.80;11.50;;;;;;;17.38;71.84;100774.00;5089801;28;20237;-70
2023/05/02 10:01:54;;;;;;;11.73;10.53;;;;;;;16.94;75.91;100768.47;5093757;28;20215;-72
2023/05/02 10:04:20;;;;;;;12.50;11.20;;;;;;;18.24;73.36;100765.97;5067112;28;20184;-70
2023/05/02 10:06:48;;;;;;;11.90;10.63;;;;;;;18.58;67.89;100763.38;5078445;28;20173;-72
2023/05/02 10:09:14;;;;;;;13.27;11.70;;;;;;;19.70;61.71;100759.75;5077417;28;20235;-69
2023/05/02 10:11:43;;;;;;;12.33;11.03;;;;;;;20.75;52.73;100764.00;5083979;28;20294;-66
2023/05/02 10:14:09;;;;;;;13.17;11.87;;;;;;;20.76;51.22;100763.88;5078113;28;20190;-70
2023/05/02 10:16:37;;;;;;;11.30;10.07;;;;;;;18.74;58.02;100778.63;5077772;28;20217;-65
2023/05/02 10:19:07;;;;;;;12.93;11.60;;;;;;;19.17;62.96;100771.84;5079631;28;20188;-62
2023/05/02 10:21:35;;;;;;;11.87;10.63;;;;;;;18.98;68.30;100770.69;5075109;28;20233;-60
2023/05/02 10:24:03;;;;;;;12.40;11.20;;;;;;;19.02;64.50;100769.50;5061244;28;20180;-60
2023/05/02 10:26:29;;;;;;;13.17;10.87;;;;;;;19.79;60.52;100774.66;5082230;28;20648;-60
2023/05/02 10:28:59;;;;;;;10.43;9.43;;;;;;;20.78;51.62;100766.38;5070726;28;20262;-59
2023/05/02 10:31:26;;;;;;;11.33;9.60;;;;;;;21.82;48.20;100770.25;5076360;28;20257;-60
2023/05/02 10:33:51;;;;;;;10.90;9.90;;;;;;;22.56;44.59;100772.13;5066858;28;20204;-64
2023/05/02 10:36:21;;;;;;;11.50;10.33;;;;;;;22.22;44.65;100767.38;5072980;28;20232;-59
2023/05/02 10:38:47;;;;;;;12.03;10.83;;;;;;;22.18;43.33;100760.78;5085894;28;20180;-59
2023/05/02 10:41:23;;;;;;;10.97;9.43;;;;;;;20.60;47.37;100763.53;5072745;28;20691;-60
2023/05/02 10:43:49;;;;;;;11.70;10.67;;;;;;;19.99;55.76;100760.81;5068326;28;20628;-60
2023/05/02 10:46:40;;;;;;;11.57;10.57;;;;;;;19.58;58.62;100749.38;5077407;28;20214;-59
2023/05/02 10:49:08;;;;;;;12.27;11.07;;;;;;;20.02;58.37;100756.25;5078538;28;20530;-60
2023/05/02 10:51:35;;;;;;;12.67;11.33;;;;;;;19.19;57.82;100756.91;5065841;28;20654;-60
2023/05/02 10:54:15;;;;;;;12.17;10.87;;;;;;;19.10;71.61;100753.25;5081798;28;20164;-60
2023/05/02 10:57:02;;;;;;;11.23;9.80;;;;;;;19.34;57.19;100745.22;5093505;28;20216;-60
2023/05/02 10:59:32;;;;;;;12.77;10.93;;;;;;;18.95;58.98;100752.69;5070757;28;20180;-60
2023/05/02 11:01:58;;;;;;;11.90;10.80;;;;;;;18.94;67.47;100743.22;5074233;28;20226;-62
2023/05/02 11:04:24;;;;;;;11.30;10.13;;;;;;;18.96;66.06;100736.09;5083026;28;20646;-60
2023/05/02 11:06:55;;;;;;;12.87;10.77;;;;;;;18.67;69.54;100733.19;5081427;28;20195;-59
2023/05/02 11:09:20;;;;;;;12.70;11.23;;;;;;;18.89;68.87;100732.31;5083856;28;20273;-60